Serenade Of The Seas — C6FV8 — position and weather

sailwx.info

Track history (hours):
 
Tides and Currents Weather Stations Pressure Air Temp Water Temp Dewpoint Dewpoint Depression Visibility Wind Speed Wind Dir Waves Ship Positions

Serenade Of The Seas

Operator: Royal Caribbean Cruises Ltd

Last reported at 2015-May-23 15:34 UTC. Time now 2015-May-23 16:24 UTC.
Position N 55°46' E 012°42'.

Length 294 m; draft 8.5 m.

Type: Ship. MMSI: 311492000.

Date/timePositionNaut miles runAvg speedWind from/ knotsBaromVisibWave heightAir tempDewpointWater temp
2015-May-23 15:34N 55°46' E 012°42'4 4.1
2015-May-23 14:31N 55°43' E 012°37'0 0.0
2015-May-23 13:31N 55°43' E 012°37'0 0.0
2015-May-23 12:31N 55°43' E 012°37'0 0.0
2015-May-23 11:31N 55°43' E 012°37'0 0.0
2015-May-23 10:31N 55°43' E 012°37'0 0.0
2015-May-23 09:31N 55°43' E 012°37'0 0.0
2015-May-23 08:31N 55°43' E 012°37'0 0.0
2015-May-23 07:31N 55°43' E 012°37'0 0.0
2015-May-23 06:31N 55°43' E 012°37'0 0.0
2015-May-23 05:31N 55°43' E 012°37'0 0.1
2015-May-23 04:33N 55°43' E 012°37'9 9.4
2015-May-23 03:33N 55°52' E 012°40'1313.3
2015-May-23 02:34N 56°05' E 012°35'1616.2
2015-May-23 01:33N 56°14' E 012°10'7113.5
2015-May-22 20:17N 55°13' E 011°06'3217.7
2015-May-22 18:30N 54°42' E 010°55'1819.4
2015-May-22 17:34N 54°33' E 011°22'2020.0
2015-May-22 16:33N 54°26' E 011°55'6017.9
2015-May-22 13:14N 54°56' E 013°24'3219.0
2015-May-22 11:33N 55°10' E 014°14'1919.4
2015-May-22 10:33N 55°26' E 014°34'2019.9
2015-May-22 09:33N 55°37' E 015°03'2120.0
2015-May-22 08:30N 55°46' E 015°36'33719.4
2015-May-21 15:06N 59°36' E 023°18'1119.6
2015-May-21 14:33N 59°40' E 023°38'2019.7
2015-May-21 13:31N 59°46' E 024°17'38 3.1
2015-May-21 01:15N 59°53' E 025°30'1718.8
2015-May-21 00:20N 59°57' E 026°04'1519.0
2015-May-20 23:33N 60°01' E 026°32'1918.8
2015-May-20 22:33N 60°02' E 027°10'2019.4
2015-May-20 21:30N 60°12' E 027°45'6516.4
2015-May-20 17:33N 59°57' E 029°52'9 9.4
2015-May-20 16:33N 59°57' E 030°10'1 0.5
2015-May-20 15:31N 59°57' E 030°12'0 0.0
2015-May-20 14:31N 59°57' E 030°12'0 0.0
2015-May-20 13:31N 59°57' E 030°12'0 0.0
2015-May-20 12:31N 59°57' E 030°12'0 0.0
2015-May-20 11:31N 59°57' E 030°12'0 0.0
2015-May-20 10:31N 59°57' E 030°12'0 0.0
2015-May-20 09:31N 59°57' E 030°12'0 0.0
2015-May-20 08:31N 59°57' E 030°12'0 0.0
2015-May-20 07:31N 59°57' E 030°12'0 0.0
2015-May-20 06:31N 59°57' E 030°12'0 0.0
2015-May-20 05:31N 59°57' E 030°12'0 0.0
2015-May-20 04:31N 59°57' E 030°12'0 0.0
2015-May-20 03:33N 59°57' E 030°12'5 5.3
2015-May-20 02:33N 59°55' E 030°01'1110.7
2015-May-20 01:31N 59°60' E 029°41'6414.5
2015-May-19 21:05N 60°07' E 027°33'916.3
2015-May-19 20:34N 60°03' E 027°18'1515.2
2015-May-19 19:34N 59°59' E 026°48'1615.8
2015-May-19 18:34N 59°57' E 026°17'1816.2
2015-May-19 17:28N 59°53' E 025°43'2216.2
2015-May-19 16:06N 59°48' E 025°00'915.7
2015-May-19 15:34N 59°42' E 024°48'1414.0
2015-May-19 14:33N 59°28' E 024°46'1 0.8
2015-May-19 13:31N 59°27' E 024°46'0 0.0
2015-May-19 12:31N 59°27' E 024°46'0 0.0
2015-May-19 11:31N 59°27' E 024°46'0 0.0
2015-May-19 10:22N 59°27' E 024°46'0 0.0
2015-May-19 09:28N 59°27' E 024°46'0 0.0
2015-May-19 08:31N 59°27' E 024°46'0 0.0
2015-May-19 07:31N 59°27' E 024°46'0 0.0
2015-May-19 06:31N 59°27' E 024°46'4 3.7
2015-May-19 05:33N 59°31' E 024°44'1514.6
2015-May-19 04:33N 59°40' E 024°21'1817.6
2015-May-19 03:33N 59°36' E 023°48'2418.3
2015-May-19 02:16N 59°29' E 023°03'1518.3
2015-May-19 01:28N 59°25' E 022°35'3918.4
2015-May-18 23:19N 59°25' E 021°18'8712.3
2015-May-18 16:15N 59°23' E 018°27'9 0.9
2015-May-18 06:32N 59°20' E 018°10'126 8.9
2015-May-17 16:25N 57°15' E 017°41'11518.7
2015-May-17 10:16N 55°41' E 015°43'1419.9
2015-May-17 09:33N 55°35' E 015°20'2020.1
2015-May-17 08:33N 55°26' E 014°48'1919.5
2015-May-17 07:33N 55°12' E 014°25'7819.3
2015-May-17 03:29N 54°37' E 012°23'1717.8
2015-May-17 02:33N 54°24' E 012°04'1919.5
2015-May-17 01:33N 54°29' E 011°31'2020.0
2015-May-17 00:33N 54°38' E 011°01'10715.2
2015-May-16 17:32N 56°18' E 012°07'2020.5
2015-May-16 16:33N 56°06' E 012°36'1818.1
2015-May-16 15:33N 55°48' E 012°43'6 6.2
2015-May-16 14:32N 55°43' E 012°37'0 0.0
2015-May-16 13:32N 55°43' E 012°37'0 0.0
2015-May-16 12:32N 55°43' E 012°37'0 0.0
2015-May-16 11:32N 55°43' E 012°37'0 0.0
2015-May-16 10:32N 55°43' E 012°37'0 0.0
2015-May-16 09:32N 55°43' E 012°37'0 0.0
2015-May-16 08:32N 55°43' E 012°37'0 0.0
2015-May-16 07:32N 55°43' E 012°37'0 0.0
2015-May-16 06:32N 55°43' E 012°37'0 0.0
2015-May-16 05:32N 55°43' E 012°37'1 0.6
2015-May-16 04:33N 55°43' E 012°38'1212.1
2015-May-16 03:33N 55°55' E 012°38'1414.4
2015-May-16 02:33N 56°08' E 012°28'1716.9
2015-May-16 01:33N 56°18' E 012°03'1817.6
2015-May-16 00:33N 56°36' E 011°57'1818.1
2015-May-15 23:33N 56°53' E 011°46'1818.3
2015-May-15 22:34N 57°10' E 011°35'1918.6
2015-May-15 21:33N 57°28' E 011°23'1818.1
2015-May-15 20:33N 57°40' E 010°59'1717.3
2015-May-15 19:33N 57°51' E 010°33'1918.8
2015-May-15 18:33N 57°51' E 009°58'12818.3
2015-May-15 11:33N 58°00' E 005°57'1919.5
2015-May-15 10:33N 58°13' E 005°29'  
Track history (hours):
 
Tides and Currents Weather Stations Pressure Air Temp Water Temp Dewpoint Dewpoint Depression Visibility Wind Speed Wind Dir Waves Ship Positions

Serenade Of The Seas

Operator: Royal Caribbean Cruises Ltd

Last reported at 2015-May-23 15:34 UTC. Time now 2015-May-23 16:24 UTC.
Position N 55°46' E 012°42'.

Length 294 m; draft 8.5 m.

Type: Ship. MMSI: 311492000.

Date/timePositionNaut miles runAvg speedWind from/ knotsBaromVisibWave heightAir tempDewpointWater temp
2015-May-23 15:34N 55°46' E 012°42'4 4.1
2015-May-23 14:31N 55°43' E 012°37'0 0.0
2015-May-23 13:31N 55°43' E 012°37'0 0.0
2015-May-23 12:31N 55°43' E 012°37'0 0.0
2015-May-23 11:31N 55°43' E 012°37'0 0.0
2015-May-23 10:31N 55°43' E 012°37'0 0.0
2015-May-23 09:31N 55°43' E 012°37'0 0.0
2015-May-23 08:31N 55°43' E 012°37'0 0.0
2015-May-23 07:31N 55°43' E 012°37'0 0.0
2015-May-23 06:31N 55°43' E 012°37'0 0.0
2015-May-23 05:31N 55°43' E 012°37'0 0.1
2015-May-23 04:33N 55°43' E 012°37'9 9.4
2015-May-23 03:33N 55°52' E 012°40'1313.3
2015-May-23 02:34N 56°05' E 012°35'1616.2
2015-May-23 01:33N 56°14' E 012°10'7113.5
2015-May-22 20:17N 55°13' E 011°06'3217.7
2015-May-22 18:30N 54°42' E 010°55'1819.4
2015-May-22 17:34N 54°33' E 011°22'2020.0
2015-May-22 16:33N 54°26' E 011°55'6017.9
2015-May-22 13:14N 54°56' E 013°24'3219.0
2015-May-22 11:33N 55°10' E 014°14'1919.4
2015-May-22 10:33N 55°26' E 014°34'2019.9
2015-May-22 09:33N 55°37' E 015°03'2120.0
2015-May-22 08:30N 55°46' E 015°36'33719.4
2015-May-21 15:06N 59°36' E 023°18'1119.6
2015-May-21 14:33N 59°40' E 023°38'2019.7
2015-May-21 13:31N 59°46' E 024°17'38 3.1
2015-May-21 01:15N 59°53' E 025°30'1718.8
2015-May-21 00:20N 59°57' E 026°04'1519.0
2015-May-20 23:33N 60°01' E 026°32'1918.8
2015-May-20 22:33N 60°02' E 027°10'2019.4
2015-May-20 21:30N 60°12' E 027°45'6516.4
2015-May-20 17:33N 59°57' E 029°52'9 9.4
2015-May-20 16:33N 59°57' E 030°10'1 0.5
2015-May-20 15:31N 59°57' E 030°12'0 0.0
2015-May-20 14:31N 59°57' E 030°12'0 0.0
2015-May-20 13:31N 59°57' E 030°12'0 0.0
2015-May-20 12:31N 59°57' E 030°12'0 0.0
2015-May-20 11:31N 59°57' E 030°12'0 0.0
2015-May-20 10:31N 59°57' E 030°12'0 0.0
2015-May-20 09:31N 59°57' E 030°12'0 0.0
2015-May-20 08:31N 59°57' E 030°12'0 0.0
2015-May-20 07:31N 59°57' E 030°12'0 0.0
2015-May-20 06:31N 59°57' E 030°12'0 0.0
2015-May-20 05:31N 59°57' E 030°12'0 0.0
2015-May-20 04:31N 59°57' E 030°12'0 0.0
2015-May-20 03:33N 59°57' E 030°12'5 5.3
2015-May-20 02:33N 59°55' E 030°01'1110.7
2015-May-20 01:31N 59°60' E 029°41'6414.5
2015-May-19 21:05N 60°07' E 027°33'916.3
2015-May-19 20:34N 60°03' E 027°18'1515.2
2015-May-19 19:34N 59°59' E 026°48'1615.8
2015-May-19 18:34N 59°57' E 026°17'1816.2
2015-May-19 17:28N 59°53' E 025°43'2216.2
2015-May-19 16:06N 59°48' E 025°00'915.7
2015-May-19 15:34N 59°42' E 024°48'1414.0
2015-May-19 14:33N 59°28' E 024°46'1 0.8
2015-May-19 13:31N 59°27' E 024°46'0 0.0
2015-May-19 12:31N 59°27' E 024°46'0 0.0
2015-May-19 11:31N 59°27' E 024°46'0 0.0
2015-May-19 10:22N 59°27' E 024°46'0 0.0
2015-May-19 09:28N 59°27' E 024°46'0 0.0
2015-May-19 08:31N 59°27' E 024°46'0 0.0
2015-May-19 07:31N 59°27' E 024°46'0 0.0
2015-May-19 06:31N 59°27' E 024°46'4 3.7
2015-May-19 05:33N 59°31' E 024°44'1514.6
2015-May-19 04:33N 59°40' E 024°21'1817.6
2015-May-19 03:33N 59°36' E 023°48'2418.3
2015-May-19 02:16N 59°29' E 023°03'1518.3
2015-May-19 01:28N 59°25' E 022°35'3918.4
2015-May-18 23:19N 59°25' E 021°18'8712.3
2015-May-18 16:15N 59°23' E 018°27'9 0.9
2015-May-18 06:32N 59°20' E 018°10'126 8.9
2015-May-17 16:25N 57°15' E 017°41'11518.7
2015-May-17 10:16N 55°41' E 015°43'1419.9
2015-May-17 09:33N 55°35' E 015°20'2020.1
2015-May-17 08:33N 55°26' E 014°48'1919.5
2015-May-17 07:33N 55°12' E 014°25'7819.3
2015-May-17 03:29N 54°37' E 012°23'1717.8
2015-May-17 02:33N 54°24' E 012°04'1919.5
2015-May-17 01:33N 54°29' E 011°31'2020.0
2015-May-17 00:33N 54°38' E 011°01'10715.2
2015-May-16 17:32N 56°18' E 012°07'2020.5
2015-May-16 16:33N 56°06' E 012°36'1818.1
2015-May-16 15:33N 55°48' E 012°43'6 6.2
2015-May-16 14:32N 55°43' E 012°37'0 0.0
2015-May-16 13:32N 55°43' E 012°37'0 0.0
2015-May-16 12:32N 55°43' E 012°37'0 0.0
2015-May-16 11:32N 55°43' E 012°37'0 0.0
2015-May-16 10:32N 55°43' E 012°37'0 0.0
2015-May-16 09:32N 55°43' E 012°37'0 0.0
2015-May-16 08:32N 55°43' E 012°37'0 0.0
2015-May-16 07:32N 55°43' E 012°37'0 0.0
2015-May-16 06:32N 55°43' E 012°37'0 0.0
2015-May-16 05:32N 55°43' E 012°37'1 0.6
2015-May-16 04:33N 55°43' E 012°38'1212.1
2015-May-16 03:33N 55°55' E 012°38'1414.4
2015-May-16 02:33N 56°08' E 012°28'1716.9
2015-May-16 01:33N 56°18' E 012°03'1817.6
2015-May-16 00:33N 56°36' E 011°57'1818.1
2015-May-15 23:33N 56°53' E 011°46'1818.3
2015-May-15 22:34N 57°10' E 011°35'1918.6
2015-May-15 21:33N 57°28' E 011°23'1818.1
2015-May-15 20:33N 57°40' E 010°59'1717.3
2015-May-15 19:33N 57°51' E 010°33'1918.8
2015-May-15 18:33N 57°51' E 009°58'12818.3
2015-May-15 11:33N 58°00' E 005°57'1919.5
2015-May-15 10:33N 58°13' E 005°29'  

Dump ship's entire track history